Time;durP1;ratioP1;P1;durP2;ratioP2;P2;SDS_P1;SDS_P2;PMS_P1;PMS_P2;Temp;Humidity;BMP_temperature;BMP_pressure;BME280_temperature;BME280_humidity;BME280_pressure;Samples;Min_cycle;Max_cycle;Signal;HPM_P1;HPM_P2
2022/03/08 00:02:09;;;;;;;0.50;0.28;;;20.80;99.90;;;;;;5094467;28;20119;-83
2022/03/08 00:04:40;;;;;;;4.43;0.63;;;20.80;99.90;;;;;;5094298;28;20091;-79
2022/03/08 00:07:08;;;;;;;0.25;0.22;;;20.80;99.90;;;;;;5094432;28;20229;-73
2022/03/08 00:09:36;;;;;;;0.95;0.10;;;20.70;99.90;;;;;;5093989;28;20028;-73
2022/03/08 00:12:04;;;;;;;0.28;0.20;;;20.70;99.90;;;;;;5094181;28;20016;-74
2022/03/08 00:14:34;;;;;;;0.88;0.35;;;20.70;99.90;;;;;;5094054;28;20021;-73
2022/03/08 00:17:02;;;;;;;0.30;0.28;;;20.60;99.90;;;;;;5093790;28;20024;-73
2022/03/08 00:19:30;;;;;;;0.65;0.30;;;20.60;99.90;;;;;;5094123;28;20020;-73
2022/03/08 00:21:57;;;;;;;1.38;0.30;;;20.70;99.90;;;;;;5093887;28;20108;-74
2022/03/08 00:24:25;;;;;;;1.52;0.70;;;20.60;99.90;;;;;;5093791;28;20058;-73
2022/03/08 00:26:53;;;;;;;0.13;0.10;;;20.60;99.90;;;;;;5092622;28;20463;-73
2022/03/08 00:29:21;;;;;;;7.65;0.40;;;20.70;99.90;;;;;;5093800;28;20165;-73
2022/03/08 00:31:51;;;;;;;2.55;0.30;;;20.60;99.90;;;;;;5094127;28;20048;-73
2022/03/08 00:34:19;;;;;;;3.58;0.30;;;20.60;99.90;;;;;;5093753;28;20622;-72
2022/03/08 00:36:46;;;;;;;6.20;0.50;;;20.60;99.90;;;;;;5093932;28;20385;-72
2022/03/08 00:39:14;;;;;;;0.80;0.50;;;20.70;99.90;;;;;;5093751;28;20073;-73
2022/03/08 00:41:43;;;;;;;1.88;0.68;;;20.70;99.90;;;;;;5093634;28;20054;-75
2022/03/08 00:44:10;;;;;;;1.05;0.40;;;20.60;99.90;;;;;;5093506;28;20020;-73
2022/03/08 00:46:38;;;;;;;3.45;0.88;;;20.70;99.90;;;;;;5093851;28;20035;-73
2022/03/08 00:49:09;;;;;;;11.48;1.85;;;20.60;99.90;;;;;;5093463;28;20089;-79
2022/03/08 00:51:36;;;;;;;4.65;1.10;;;20.60;99.90;;;;;;5093576;28;20027;-80
2022/03/08 00:54:05;;;;;;;2.28;1.40;;;20.60;99.90;;;;;;5093845;28;20461;-80
2022/03/08 00:56:33;;;;;;;2.13;1.20;;;20.60;99.90;;;;;;5093388;28;20473;-74
2022/03/08 00:59:00;;;;;;;2.13;1.15;;;20.60;99.90;;;;;;5093392;28;20056;-73
2022/03/08 01:01:28;;;;;;;11.90;1.67;;;20.50;99.90;;;;;;5093701;28;20026;-73
2022/03/08 01:03:56;;;;;;;5.85;1.52;;;20.50;99.90;;;;;;5093624;28;20073;-78
2022/03/08 01:06:24;;;;;;;2.25;1.35;;;20.50;99.90;;;;;;5093532;28;20104;-82
2022/03/08 01:08:51;;;;;;;2.67;1.15;;;20.50;99.90;;;;;;5093374;28;20455;-83
2022/03/08 01:11:19;;;;;;;1.77;1.00;;;20.50;99.90;;;;;;5093382;28;20035;-83
2022/03/08 01:13:47;;;;;;;1.73;0.73;;;20.50;99.90;;;;;;5093481;28;20020;-78
2022/03/08 01:16:14;;;;;;;1.55;0.70;;;20.40;99.90;;;;;;5093480;28;20074;-77
2022/03/08 01:18:42;;;;;;;2.03;0.60;;;20.40;99.90;;;;;;5092070;28;20024;-80
2022/03/08 01:21:14;;;;;;;2.22;0.45;;;20.40;99.90;;;;;;5093605;28;20084;-79
2022/03/08 01:23:43;;;;;;;0.20;0.20;;;20.30;99.90;;;;;;5093451;28;20493;-79
2022/03/08 01:26:10;;;;;;;2.30;0.47;;;20.20;99.90;;;;;;5093335;28;20024;-80
2022/03/08 01:28:38;;;;;;;0.30;0.28;;;20.20;99.90;;;;;;5093884;28;20020;-77
2022/03/08 01:31:06;;;;;;;0.85;0.10;;;20.20;99.90;;;;;;5094154;28;20054;-81
2022/03/08 01:33:34;;;;;;;0.68;0.20;;;20.20;99.90;;;;;;5093889;28;20024;-75
2022/03/08 01:36:04;;;;;;;0.50;0.10;;;20.20;99.90;;;;;;5093609;28;20025;-82
2022/03/08 01:38:32;;;;;;;0.73;0.20;;;20.20;99.90;;;;;;5094948;28;20074;-81
2022/03/08 01:40:59;;;;;;;0.50;0.10;;;20.20;99.90;;;;;;5092524;28;20162;-80
2022/03/08 01:43:27;;;;;;;0.10;0.10;;;20.20;99.90;;;;;;5094365;28;20024;-81
2022/03/08 01:45:55;;;;;;;0.47;0.20;;;20.20;99.90;;;;;;5096289;28;20028;-81
2022/03/08 01:48:30;;;;;;;0.10;0.10;;;20.10;99.90;;;;;;5093080;28;20024;-76
2022/03/08 01:50:58;;;;;;;1.60;0.30;;;20.20;99.90;;;;;;5093283;28;20042;-82
2022/03/08 01:53:26;;;;;;;0.63;0.25;;;20.10;99.90;;;;;;5093103;28;20073;-74
2022/03/08 01:55:54;;;;;;;1.77;0.60;;;20.10;99.90;;;;;;5095853;28;20659;-75
2022/03/08 01:58:24;;;;;;;2.20;0.98;;;20.10;99.90;;;;;;5096475;28;20024;-83
2022/03/08 02:00:52;;;;;;;4.68;1.15;;;20.20;99.90;;;;;;5096911;28;20054;-83
2022/03/08 02:03:19;;;;;;;2.30;0.80;;;20.20;99.90;;;;;;5096754;28;20030;-75
2022/03/08 02:05:47;;;;;;;1.98;1.13;;;20.20;99.90;;;;;;5096569;28;20077;-75
2022/03/08 02:08:15;;;;;;;1.48;0.95;;;20.20;99.90;;;;;;5096659;28;20030;-75
2022/03/08 02:10:43;;;;;;;2.05;1.13;;;20.20;99.90;;;;;;5096366;28;20503;-79
2022/03/08 02:13:11;;;;;;;3.90;1.40;;;20.20;99.90;;;;;;5096492;28;20024;-76
2022/03/08 02:15:47;;;;;;;2.00;0.90;;;20.20;99.90;;;;;;5096382;28;20027;-75
2022/03/08 02:18:14;;;;;;;3.65;1.38;;;20.20;99.90;;;;;;5096293;28;20024;-81
2022/03/08 02:20:42;;;;;;;4.47;1.20;;;20.20;99.90;;;;;;5095041;28;20372;-76
2022/03/08 02:23:10;;;;;;;3.35;1.17;;;20.20;99.90;;;;;;5096141;28;20035;-77
2022/03/08 02:25:38;;;;;;;2.22;1.15;;;20.20;99.90;;;;;;5096038;28;20024;-75
2022/03/08 02:28:06;;;;;;;4.43;1.10;;;20.10;99.90;;;;;;5096248;28;20444;-79
2022/03/08 02:30:34;;;;;;;2.50;0.95;;;20.10;99.90;;;;;;5096041;28;20061;-75
2022/03/08 02:33:03;;;;;;;3.00;1.08;;;20.10;99.90;;;;;;5096176;28;20024;-77
2022/03/08 02:35:32;;;;;;;2.92;1.15;;;20.10;99.90;;;;;;5095953;28;20380;-85
2022/03/08 02:38:04;;;;;;;2.38;0.95;;;20.10;99.90;;;;;;5095899;28;20030;-75
2022/03/08 02:40:35;;;;;;;2.13;0.82;;;20.10;99.90;;;;;;5096115;28;20463;-83
2022/03/08 02:43:04;;;;;;;4.15;1.20;;;20.00;99.90;;;;;;5096007;28;20016;-79
2022/03/08 02:45:32;;;;;;;3.60;1.10;;;20.10;99.90;;;;;;5094448;28;20464;-80
2022/03/08 02:48:00;;;;;;;8.65;1.10;;;20.10;99.90;;;;;;5095740;28;20508;-85
2022/03/08 02:50:28;;;;;;;1.42;0.63;;;20.00;99.90;;;;;;5095522;28;20123;-75
2022/03/08 02:52:59;;;;;;;4.07;1.17;;;20.00;99.90;;;;;;5095786;28;20158;-74
2022/03/08 02:55:30;;;;;;;2.80;0.77;;;19.90;99.90;;;;;;5095797;28;20063;-75
2022/03/08 02:57:58;;;;;;;6.15;1.20;;;19.90;99.90;;;;;;5095555;28;20021;-80
2022/03/08 03:00:28;;;;;;;2.83;1.00;;;20.00;99.90;;;;;;5095630;28;20031;-75
2022/03/08 03:02:56;;;;;;;2.35;0.93;;;19.90;99.90;;;;;;5095442;28;20024;-79
2022/03/08 03:05:24;;;;;;;2.53;0.80;;;19.90;99.90;;;;;;5095264;28;20028;-76
2022/03/08 03:07:53;;;;;;;5.05;1.48;;;19.90;99.90;;;;;;5095388;28;20020;-78
2022/03/08 03:10:22;;;;;;;7.20;1.60;;;19.80;99.90;;;;;;5095623;28;20062;-85
2022/03/08 03:12:50;;;;;;;3.88;1.20;;;19.80;99.90;;;;;;5095222;28;20098;-86
2022/03/08 03:15:19;;;;;;;2.80;1.10;;;19.80;99.90;;;;;;5093884;28;20032;-76
2022/03/08 03:17:51;;;;;;;6.03;1.60;;;19.80;99.90;;;;;;5095158;28;20024;-86
2022/03/08 03:20:21;;;;;;;4.28;1.52;;;19.80;99.90;;;;;;5095075;28;20067;-84
2022/03/08 03:22:49;;;;;;;2.92;1.00;;;19.70;99.90;;;;;;5095317;28;20024;-83
2022/03/08 03:25:18;;;;;;;2.58;1.38;;;19.70;99.90;;;;;;5095155;28;20020;-77
2022/03/08 03:27:46;;;;;;;3.75;1.20;;;19.70;99.90;;;;;;5095016;28;20073;-77
2022/03/08 03:30:18;;;;;;;6.97;1.70;;;19.70;99.90;;;;;;5094985;28;20032;-85
2022/03/08 03:32:47;;;;;;;4.40;1.20;;;19.70;99.90;;;;;;5095215;28;20465;-87
2022/03/08 03:35:15;;;;;;;4.38;1.40;;;19.60;99.90;;;;;;5094943;28;20028;-86
2022/03/08 03:37:43;;;;;;;8.30;0.98;;;19.70;99.90;;;;;;5094727;28;20465;-85
2022/03/08 03:40:11;;;;;;;2.80;1.08;;;19.60;99.90;;;;;;5094699;28;20043;-87
2022/03/08 03:42:43;;;;;;;4.95;1.20;;;19.60;99.90;;;;;;5094612;28;20024;-85
2022/03/08 03:45:11;;;;;;;3.05;0.80;;;19.60;99.90;;;;;;5094799;28;20388;-86
2022/03/08 03:47:40;;;;;;;4.53;1.30;;;19.60;99.90;;;;;;5094760;28;20024;-85
2022/03/08 03:50:09;;;;;;;4.38;1.02;;;19.60;99.90;;;;;;5094391;28;20040;-85
2022/03/08 03:52:39;;;;;;;4.05;1.25;;;19.60;99.90;;;;;;5094551;28;20016;-85
2022/03/08 03:55:08;;;;;;;3.03;1.15;;;19.60;99.90;;;;;;5094545;28;20386;-86
2022/03/08 03:57:35;;;;;;;3.30;0.98;;;19.60;99.90;;;;;;5094391;28;20462;-86
2022/03/08 04:00:05;;;;;;;2.72;0.90;;;19.60;99.90;;;;;;5094473;28;20036;-86
2022/03/08 04:02:33;;;;;;;2.55;0.98;;;19.60;99.90;;;;;;5094624;28;20090;-83
2022/03/08 04:05:00;;;;;;;3.08;0.85;;;19.60;99.90;;;;;;5094397;28;20103;-81
2022/03/08 04:07:28;;;;;;;1.98;0.70;;;19.60;99.90;;;;;;5094359;28;20024;-80
2022/03/08 04:09:56;;;;;;;3.70;0.80;;;19.60;99.90;;;;;;5094382;28;20043;-78
2022/03/08 04:12:24;;;;;;;2.10;0.60;;;19.60;99.90;;;;;;5094308;28;20367;-84
2022/03/08 04:14:52;;;;;;;0.70;0.70;;;19.60;99.90;;;;;;5094073;28;20023;-81
2022/03/08 04:17:19;;;;;;;3.20;1.10;;;19.50;99.90;;;;;;5093296;28;20038;-77
2022/03/08 04:19:47;;;;;;;8.13;1.13;;;19.60;99.90;;;;;;5094119;28;20036;-85
2022/03/08 04:22:15;;;;;;;2.03;0.93;;;19.60;99.90;;;;;;5094704;28;20034;-76
2022/03/08 04:24:42;;;;;;;2.05;0.80;;;19.50;99.90;;;;;;5093760;28;20031;-77
2022/03/08 04:27:10;;;;;;;1.60;0.60;;;19.60;99.90;;;;;;5094064;28;20101;-83
2022/03/08 04:29:38;;;;;;;3.38;0.90;;;19.50;99.90;;;;;;5093902;28;20550;-82
2022/03/08 04:32:06;;;;;;;2.35;0.63;;;19.50;99.90;;;;;;5093916;28;20116;-84
2022/03/08 04:34:34;;;;;;;4.43;0.65;;;19.50;99.90;;;;;;5093762;28;20024;-75
2022/03/08 04:37:02;;;;;;;1.55;0.50;;;19.40;99.90;;;;;;5093568;28;20026;-76
2022/03/08 04:39:30;;;;;;;2.17;0.50;;;19.40;99.90;;;;;;5093676;28;20020;-80
2022/03/08 04:42:00;;;;;;;3.95;0.75;;;19.30;99.90;;;;;;5093843;28;20024;-82
2022/03/08 04:44:28;;;;;;;1.85;0.50;;;19.40;99.90;;;;;;5093594;28;20062;-82
2022/03/08 04:46:56;;;;;;;2.70;0.55;;;19.40;99.90;;;;;;5093861;28;20102;-80
2022/03/08 04:49:25;;;;;;;2.80;0.70;;;19.40;99.90;;;;;;5094179;28;20079;-73
2022/03/08 04:51:55;;;;;;;1.52;0.65;;;19.40;99.90;;;;;;5093898;28;20480;-82
2022/03/08 04:54:23;;;;;;;2.50;0.30;;;19.40;99.90;;;;;;5093701;28;20028;-85
2022/03/08 04:56:53;;;;;;;1.23;0.40;;;19.40;99.90;;;;;;5093772;28;20012;-82
2022/03/08 04:59:21;;;;;;;9.80;0.75;;;19.30;99.90;;;;;;5093729;28;20028;-78
2022/03/08 05:01:49;;;;;;;0.25;0.20;;;19.30;99.90;;;;;;5092235;28;20024;-82
2022/03/08 05:04:17;;;;;;;1.23;0.73;;;19.30;99.90;;;;;;5093507;28;20024;-75
2022/03/08 05:06:45;;;;;;;1.33;0.45;;;19.30;99.90;;;;;;5092261;28;20077;-76
2022/03/08 05:09:13;;;;;;;0.43;0.20;;;19.30;99.90;;;;;;5093459;28;20020;-80
2022/03/08 05:11:41;;;;;;;0.88;0.30;;;19.20;99.90;;;;;;5093484;28;20020;-74
2022/03/08 05:14:08;;;;;;;0.65;0.28;;;19.20;99.90;;;;;;5093237;28;20028;-79
2022/03/08 05:16:36;;;;;;;6.15;0.50;;;19.20;99.90;;;;;;5093194;28;20028;-83
2022/03/08 05:19:04;;;;;;;0.55;0.28;;;19.20;99.90;;;;;;5091893;28;20472;-87
2022/03/08 05:21:31;;;;;;;1.33;0.40;;;19.20;99.90;;;;;;5093355;28;20052;-83
2022/03/08 05:23:59;;;;;;;2.33;0.63;;;19.20;99.90;;;;;;5091910;28;20077;-81
2022/03/08 05:26:27;;;;;;;1.50;0.55;;;19.20;99.90;;;;;;5091895;28;20052;-83
2022/03/08 05:28:54;;;;;;;2.78;0.60;;;19.20;99.90;;;;;;5094735;28;20028;-84
2022/03/08 05:31:22;;;;;;;1.20;0.50;;;19.10;99.90;;;;;;5097251;28;20054;-79
2022/03/08 05:33:50;;;;;;;2.53;0.75;;;19.10;99.90;;;;;;5097249;28;20039;-79
2022/03/08 05:36:17;;;;;;;7.35;0.40;;;19.10;99.90;;;;;;5097300;28;20031;-74
2022/03/08 05:38:45;;;;;;;1.20;0.47;;;19.20;99.90;;;;;;5095701;28;20020;-80
2022/03/08 05:41:13;;;;;;;2.40;0.65;;;19.10;99.90;;;;;;5097005;28;20032;-77
2022/03/08 05:43:40;;;;;;;2.10;0.40;;;19.10;99.90;;;;;;5097000;28;20069;-82
2022/03/08 05:46:08;;;;;;;4.60;0.35;;;19.10;99.90;;;;;;5096980;28;20039;-82
2022/03/08 05:48:38;;;;;;;1.70;0.47;;;19.10;99.90;;;;;;5096472;28;20020;-84
2022/03/08 05:51:06;;;;;;;2.92;0.40;;;19.10;99.90;;;;;;5096952;28;20028;-76
2022/03/08 05:53:37;;;;;;;1.08;0.35;;;19.00;99.90;;;;;;5096691;28;20154;-85
2022/03/08 05:56:07;;;;;;;3.00;0.20;;;19.00;99.90;;;;;;5097439;28;20020;-81
2022/03/08 05:58:35;;;;;;;2.53;0.60;;;18.90;99.90;;;;;;5096629;28;20056;-78
2022/03/08 06:01:03;;;;;;;0.40;0.20;;;18.90;99.90;;;;;;5096768;28;20542;-82
2022/03/08 06:03:31;;;;;;;1.33;0.47;;;18.90;99.90;;;;;;5095356;28;20029;-78
2022/03/08 06:05:58;;;;;;;1.25;0.20;;;18.90;99.90;;;;;;5096734;28;20089;-76
2022/03/08 06:08:28;;;;;;;1.30;0.45;;;18.90;99.90;;;;;;5096399;28;20034;-81
2022/03/08 06:10:56;;;;;;;0.20;0.20;;;18.90;99.90;;;;;;5096374;28;20032;-84
2022/03/08 06:13:24;;;;;;;0.13;0.10;;;18.80;99.90;;;;;;5096610;28;20062;-80
2022/03/08 06:15:51;;;;;;;4.60;0.40;;;18.80;99.90;;;;;;5096524;28;20028;-73
2022/03/08 06:18:19;;;;;;;0.10;0.10;;;18.70;99.90;;;;;;5096276;28;20020;-81
2022/03/08 06:20:47;;;;;;;10.45;0.47;;;18.60;99.90;;;;;;5096316;28;20047;-78
2022/03/08 06:23:14;;;;;;;0.85;0.20;;;18.60;99.90;;;;;;5096194;28;20076;-82
2022/03/08 06:25:42;;;;;;;1.52;0.20;;;18.70;99.90;;;;;;5096164;28;20039;-79
2022/03/08 06:28:10;;;;;;;0.10;0.10;;;18.60;99.90;;;;;;5096284;28;20111;-79
2022/03/08 06:30:38;;;;;;;0.28;0.10;;;18.60;99.90;;;;;;5094844;28;20137;-82
2022/03/08 06:33:06;;;;;;;0.32;0.15;;;18.60;99.90;;;;;;5096140;28;20024;-83
2022/03/08 06:35:33;;;;;;;1.45;0.22;;;18.60;99.90;;;;;;5095888;28;20034;-81
2022/03/08 06:38:01;;;;;;;0.40;0.20;;;18.60;99.90;;;;;;5094463;28;20016;-78
2022/03/08 06:40:29;;;;;;;1.08;0.28;;;18.60;99.90;;;;;;5095317;28;20114;-81
2022/03/08 06:42:56;;;;;;;1.65;0.20;;;18.50;99.90;;;;;;5095858;28;20099;-74
2022/03/08 06:45:24;;;;;;;2.78;0.90;;;18.50;99.90;;;;;;5095866;28;20540;-74
2022/03/08 06:47:52;;;;;;;0.35;0.28;;;18.50;99.90;;;;;;5095785;28;20028;-74
2022/03/08 06:50:22;;;;;;;0.40;0.20;;;18.60;99.90;;;;;;5095638;28;20075;-81
2022/03/08 06:52:50;;;;;;;3.63;0.57;;;18.60;99.90;;;;;;5095695;28;20024;-82
2022/03/08 06:55:18;;;;;;;0.65;0.30;;;18.50;99.90;;;;;;5095717;28;20035;-75
2022/03/08 06:57:46;;;;;;;0.40;0.30;;;18.50;99.90;;;;;;5095711;28;20017;-74
2022/03/08 07:00:14;;;;;;;1.13;0.40;;;18.50;99.90;;;;;;5095621;28;20070;-74
2022/03/08 07:02:42;;;;;;;1.33;0.20;;;18.50;99.90;;;;;;5095454;28;20056;-74
2022/03/08 07:05:10;;;;;;;0.60;0.30;;;18.50;99.90;;;;;;5095448;28;20035;-73
2022/03/08 07:07:38;;;;;;;0.25;0.25;;;18.50;99.90;;;;;;5095394;28;20031;-76
2022/03/08 07:10:07;;;;;;;0.90;0.50;;;18.50;99.90;;;;;;5095440;28;20032;-80
2022/03/08 07:12:35;;;;;;;1.80;0.32;;;18.50;99.90;;;;;;5095508;28;20031;-74
2022/03/08 07:15:03;;;;;;;0.57;0.30;;;18.50;99.90;;;;;;5094994;28;20028;-73
2022/03/08 07:17:31;;;;;;;1.02;0.45;;;18.50;99.90;;;;;;5095133;28;20082;-78
2022/03/08 07:19:58;;;;;;;0.30;0.20;;;18.50;99.90;;;;;;5095240;28;20020;-80
2022/03/08 07:22:26;;;;;;;1.30;0.30;;;18.40;99.90;;;;;;5095243;28;20028;-81
2022/03/08 07:24:54;;;;;;;0.77;0.20;;;18.50;99.90;;;;;;5093725;28;20024;-80
2022/03/08 07:27:22;;;;;;;0.43;0.30;;;18.50;99.90;;;;;;5094960;28;20020;-74
2022/03/08 07:29:49;;;;;;;0.85;0.10;;;18.50;99.90;;;;;;5094878;28;20384;-73
2022/03/08 07:32:17;;;;;;;0.85;0.32;;;18.50;99.90;;;;;;5095297;28;20016;-80
2022/03/08 07:34:48;;;;;;;0.73;0.10;;;18.50;99.90;;;;;;5094799;28;20027;-76
2022/03/08 07:37:15;;;;;;;0.20;0.10;;;18.50;99.90;;;;;;5094627;28;20047;-77
2022/03/08 07:39:43;;;;;;;0.57;0.20;;;18.50;99.90;;;;;;5094725;28;20468;-81
2022/03/08 07:42:11;;;;;;;0.88;0.50;;;18.40;99.90;;;;;;5094679;28;20020;-81
2022/03/08 07:44:39;;;;;;;0.85;0.50;;;18.50;99.90;;;;;;5094582;28;20086;-81
2022/03/08 07:47:08;;;;;;;0.52;0.15;;;18.40;99.90;;;;;;5092777;28;20016;-77
2022/03/08 07:49:37;;;;;;;0.90;0.40;;;18.40;99.90;;;;;;5093512;28;20438;-74
2022/03/08 07:52:05;;;;;;;0.40;0.40;;;18.40;99.90;;;;;;5093912;28;20093;-78
2022/03/08 07:54:32;;;;;;;0.28;0.28;;;18.40;99.90;;;;;;5093966;28;20027;-75
2022/03/08 07:57:00;;;;;;;1.38;0.30;;;18.40;99.90;;;;;;5093113;28;20069;-74
2022/03/08 07:59:29;;;;;;;0.30;0.20;;;18.40;99.90;;;;;;5094386;28;20020;-73
2022/03/08 08:01:56;;;;;;;0.85;0.40;;;18.40;99.90;;;;;;5094236;28;20024;-73
2022/03/08 08:04:24;;;;;;;1.50;0.30;;;18.30;99.90;;;;;;5092675;28;20023;-72
2022/03/08 08:06:52;;;;;;;0.10;0.10;;;18.40;99.90;;;;;;5086862;28;20016;-81
2022/03/08 08:09:20;;;;;;;2.45;0.20;;;18.30;99.90;;;;;;5074433;28;20470;-82
2022/03/08 08:11:49;;;;;;;0.52;0.20;;;18.30;99.90;;;;;;5090096;28;20020;-81
2022/03/08 08:14:17;;;;;;;2.83;0.25;;;18.20;99.90;;;;;;5091443;28;20020;-73
2022/03/08 08:16:48;;;;;;;0.30;0.30;;;18.30;99.90;;;;;;5091827;28;20024;-75
2022/03/08 08:19:16;;;;;;;0.40;0.20;;;18.30;99.90;;;;;;5091051;28;20441;-81
2022/03/08 08:21:44;;;;;;;3.30;0.57;;;18.30;99.90;;;;;;5092659;28;20054;-80
2022/03/08 08:24:12;;;;;;;0.70;0.20;;;18.30;99.90;;;;;;5092132;28;20020;-79
2022/03/08 08:26:40;;;;;;;0.47;0.32;;;18.30;99.90;;;;;;5091704;28;20019;-79
2022/03/08 08:29:07;;;;;;;4.22;0.30;;;18.20;99.90;;;;;;5092286;28;20020;-78
2022/03/08 08:31:35;;;;;;;2.25;0.20;;;18.20;99.90;;;;;;5092118;28;20477;-75
2022/03/08 08:34:03;;;;;;;0.45;0.20;;;18.20;99.90;;;;;;5090958;28;20016;-81
2022/03/08 08:36:31;;;;;;;2.90;0.10;;;18.30;99.90;;;;;;5091456;28;20051;-75
2022/03/08 08:39:03;;;;;;;0.68;0.25;;;18.30;99.90;;;;;;5090925;28;20428;-79
2022/03/08 08:41:31;;;;;;;1.08;0.38;;;18.20;99.90;;;;;;5090588;28;20036;-82
2022/03/08 08:43:58;;;;;;;1.30;0.20;;;18.20;99.90;;;;;;5091490;28;20055;-82
2022/03/08 08:46:26;;;;;;;0.55;0.10;;;18.10;99.90;;;;;;5091145;28;20036;-81
2022/03/08 08:48:54;;;;;;;0.10;0.10;;;18.10;99.90;;;;;;5091126;28;20377;-81
2022/03/08 08:51:21;;;;;;;1.85;0.15;;;18.20;99.90;;;;;;5090932;28;20109;-80
2022/03/08 08:53:49;;;;;;;1.27;0.50;;;18.20;99.90;;;;;;5091307;28;20035;-81
2022/03/08 08:56:17;;;;;;;0.10;0.10;;;18.20;99.90;;;;;;5089961;28;20031;-82
2022/03/08 08:58:45;;;;;;;0.80;0.20;;;18.20;99.90;;;;;;5077368;28;20386;-79
2022/03/08 09:01:12;;;;;;;2.88;0.70;;;18.20;99.90;;;;;;5072462;28;20099;-76
2022/03/08 09:03:40;;;;;;;0.38;0.20;;;18.20;99.90;;;;;;5074533;28;20055;-83
2022/03/08 09:06:08;;;;;;;1.38;0.20;;;18.10;99.90;;;;;;5078377;28;20089;-82
2022/03/08 09:08:36;;;;;;;1.00;0.20;;;18.10;99.90;;;;;;5081489;28;20099;-80
2022/03/08 09:11:05;;;;;;;0.08;0.08;;;18.10;99.90;;;;;;5079493;28;20024;-81
2022/03/08 09:13:33;;;;;;;0.90;0.20;;;18.20;99.90;;;;;;5079131;28;20013;-80
2022/03/08 09:16:00;;;;;;;0.25;0.20;;;18.20;99.90;;;;;;5078961;28;20025;-83
2022/03/08 09:18:28;;;;;;;1.00;0.15;;;18.20;99.90;;;;;;5083944;28;20095;-82
2022/03/08 09:20:56;;;;;;;0.10;0.10;;;18.20;99.90;;;;;;5098984;28;20020;-83
2022/03/08 09:23:24;;;;;;;0.52;0.10;;;18.20;99.90;;;;;;5093857;28;20082;-78
2022/03/08 09:25:51;;;;;;;0.50;0.20;;;18.10;99.90;;;;;;5086602;28;20465;-82
2022/03/08 09:28:19;;;;;;;0.10;0.10;;;18.20;99.90;;;;;;5086705;28;20051;-76
2022/03/08 09:30:48;;;;;;;0.10;0.10;;;18.20;99.90;;;;;;5084221;28;20041;-81
2022/03/08 09:33:15;;;;;;;0.05;0.05;;;18.10;99.90;;;;;;5086265;28;20016;-77
2022/03/08 09:35:43;;;;;;;1.67;0.20;;;18.20;99.90;;;;;;5087668;28;20097;-74
2022/03/08 09:38:12;;;;;;;0.13;0.10;;;18.20;99.90;;;;;;5086702;28;20397;-79
2022/03/08 09:40:41;;;;;;;0.47;0.28;;;18.20;99.90;;;;;;5086207;28;20043;-82
2022/03/08 09:43:09;;;;;;;0.55;0.28;;;18.10;99.90;;;;;;5086891;28;20477;-75
2022/03/08 09:45:37;;;;;;;0.43;0.10;;;18.10;99.90;;;;;;5087124;28;20086;-84
2022/03/08 09:48:05;;;;;;;0.63;0.10;;;18.20;99.90;;;;;;5086995;28;20016;-81
2022/03/08 09:50:33;;;;;;;0.20;0.10;;;18.10;99.90;;;;;;5086508;28;20040;-81
2022/03/08 09:53:02;;;;;;;0.73;0.30;;;18.10;99.90;;;;;;5086000;28;20047;-84
2022/03/08 09:55:30;;;;;;;0.20;0.13;;;18.10;99.90;;;;;;5087949;28;20013;-82
2022/03/08 09:57:58;;;;;;;0.28;0.20;;;18.00;99.90;;;;;;5087422;28;20020;-84
2022/03/08 10:00:26;;;;;;;0.40;0.20;;;18.00;99.90;;;;;;5087148;28;20020;-81
2022/03/08 10:02:59;;;;;;;3.17;0.20;;;18.00;99.90;;;;;;5087610;28;20531;-80
2022/03/08 10:05:33;;;;;;;0.22;0.10;;;18.00;99.90;;;;;;5085670;28;20012;-80
2022/03/08 10:08:13;;;;;;;0.75;0.20;;;18.00;99.90;;;;;;5088706;28;20020;-81
2022/03/08 10:11:01;;;;;;;0.30;0.30;;;17.90;99.90;;;;;;5087443;28;20076;-80
2022/03/08 10:13:32;;;;;;;0.40;0.20;;;17.80;99.90;;;;;;5085224;28;20021;-82
2022/03/08 10:16:24;;;;;;;5.18;0.32;;;17.80;99.90;;;;;;5081604;28;20035;-87
2022/03/08 10:19:02;;;;;;;0.22;0.13;;;17.70;99.90;;;;;;5083188;28;20452;-79
2022/03/08 10:21:35;;;;;;;0.45;0.10;;;17.70;99.90;;;;;;5084968;28;20028;-82
2022/03/08 10:24:18;;;;;;;0.13;0.13;;;17.70;99.90;;;;;;5083067;28;20428;-80
2022/03/08 10:26:56;;;;;;;0.00;0.00;;;17.70;99.90;;;;;;5084793;28;20024;-79
2022/03/08 10:29:34;;;;;;;0.63;0.20;;;17.60;99.90;;;;;;5083151;28;20029;-77
2022/03/08 10:32:21;;;;;;;0.75;0.30;;;17.60;99.90;;;;;;5082133;28;20027;-78
2022/03/08 10:34:54;;;;;;;1.02;0.10;;;17.60;99.90;;;;;;5082106;28;20025;-79
2022/03/08 10:37:24;;;;;;;1.13;0.35;;;17.60;99.90;;;;;;5081909;28;20027;-79
2022/03/08 10:39:54;;;;;;;0.08;0.08;;;17.60;99.90;;;;;;5083240;28;20012;-74
2022/03/08 10:42:35;;;;;;;0.47;0.30;;;17.60;99.90;;;;;;5081484;28;20035;-74
2022/03/08 10:45:13;;;;;;;0.10;0.10;;;17.60;99.90;;;;;;5081792;28;20020;-72
2022/03/08 10:47:54;;;;;;;0.10;0.10;;;17.50;99.90;;;;;;5082967;28;20412;-73
2022/03/08 10:50:28;;;;;;;0.22;0.10;;;17.60;99.90;;;;;;5082165;28;20052;-73
2022/03/08 10:52:58;;;;;;;1.55;0.30;;;17.60;99.90;;;;;;5080202;28;20403;-77
2022/03/08 10:55:28;;;;;;;0.85;0.20;;;17.60;99.90;;;;;;5076135;28;20035;-73
2022/03/08 10:58:07;;;;;;;0.20;0.10;;;17.60;99.90;;;;;;5092803;28;20500;-76
2022/03/08 11:00:38;;;;;;;1.15;0.10;;;17.60;99.90;;;;;;5090658;28;20028;-79
2022/03/08 11:03:08;;;;;;;0.55;0.10;;;17.60;99.90;;;;;;5093532;28;20107;-75
2022/03/08 11:05:43;;;;;;;0.70;0.30;;;17.60;99.90;;;;;;5090424;28;20020;-75
2022/03/08 11:08:12;;;;;;;0.20;0.10;;;17.60;99.90;;;;;;5085990;28;20017;-74
2022/03/08 11:10:40;;;;;;;0.20;0.10;;;17.60;99.90;;;;;;5093736;28;20068;-80
2022/03/08 11:13:09;;;;;;;0.00;0.00;;;17.60;99.90;;;;;;5093564;28;20106;-82
2022/03/08 11:15:39;;;;;;;1.40;0.55;;;17.60;99.90;;;;;;5094009;28;20099;-80
2022/03/08 11:18:09;;;;;;;0.13;0.13;;;17.60;99.90;;;;;;5093535;28;20020;-79
2022/03/08 11:20:38;;;;;;;3.85;0.30;;;17.50;99.90;;;;;;5093716;28;20027;-74
2022/03/08 11:23:09;;;;;;;1.20;0.20;;;17.60;99.90;;;;;;5093448;28;20020;-74
2022/03/08 11:25:44;;;;;;;0.88;0.10;;;17.50;99.90;;;;;;5092924;28;20020;-75
2022/03/08 11:28:13;;;;;;;0.73;0.53;;;17.50;99.90;;;;;;5091728;28;20098;-72
2022/03/08 11:30:56;;;;;;;0.17;0.10;;;17.50;99.90;;;;;;5094114;28;20020;-74
2022/03/08 11:34:01;;;;;;;0.43;0.20;;;17.60;99.90;;;;;;5092277;28;20044;-76
2022/03/08 11:36:48;;;;;;;2.83;0.20;;;17.60;99.90;;;;;;5094176;28;20051;-77
2022/03/08 11:39:27;;;;;;;2.67;0.10;;;17.50;99.90;;;;;;5092634;28;20456;-79
2022/03/08 11:42:15;;;;;;;0.10;0.10;;;17.50;99.90;;;;;;5092329;28;20031;-73
2022/03/08 11:45:04;;;;;;;1.30;0.20;;;17.50;99.90;;;;;;5091825;28;20016;-75
2022/03/08 11:47:41;;;;;;;0.30;0.20;;;17.50;99.90;;;;;;5095582;28;20074;-74
2022/03/08 11:50:36;;;;;;;0.15;0.10;;;17.50;99.90;;;;;;5103907;28;20052;-74
2022/03/08 11:53:09;;;;;;;0.22;0.10;;;17.50;99.90;;;;;;5091164;28;20441;-75
2022/03/08 11:55:47;;;;;;;0.82;0.47;;;17.50;99.90;;;;;;5093442;28;20515;-73
2022/03/08 11:58:19;;;;;;;2.45;0.10;;;17.50;99.90;;;;;;5091942;28;20024;-74
2022/03/08 12:00:58;;;;;;;0.43;0.20;;;17.50;99.90;;;;;;5093952;28;20099;-73
2022/03/08 12:03:26;;;;;;;0.30;0.20;;;17.50;99.90;;;;;;5093780;28;20103;-73
2022/03/08 12:06:07;;;;;;;1.55;0.10;;;17.50;99.90;;;;;;5093924;28;20546;-73
2022/03/08 12:08:47;;;;;;;0.47;0.20;;;17.50;99.90;;;;;;5091924;28;20024;-74
2022/03/08 12:11:24;;;;;;;0.10;0.10;;;17.50;99.90;;;;;;5091802;28;20384;-76
2022/03/08 12:14:04;;;;;;;0.10;0.10;;;17.40;99.90;;;;;;5089931;28;20020;-73
2022/03/08 12:16:32;;;;;;;1.45;0.20;;;17.50;99.90;;;;;;5089917;28;20019;-78
2022/03/08 12:19:03;;;;;;;0.35;0.13;;;17.50;99.90;;;;;;5093484;28;20360;-77
2022/03/08 12:21:32;;;;;;;4.95;0.28;;;17.40;99.90;;;;;;5091187;28;20012;-73
2022/03/08 12:24:05;;;;;;;0.43;0.22;;;17.40;99.90;;;;;;5093407;28;20423;-75
2022/03/08 12:26:38;;;;;;;1.10;0.22;;;17.40;99.90;;;;;;5091347;28;20020;-80
2022/03/08 12:29:24;;;;;;;0.93;0.10;;;17.40;99.90;;;;;;5093237;28;20102;-74
2022/03/08 12:31:58;;;;;;;0.52;0.10;;;17.40;99.90;;;;;;5090999;28;20020;-74
2022/03/08 12:34:42;;;;;;;0.10;0.10;;;17.40;99.90;;;;;;5093245;28;20154;-73
2022/03/08 12:37:17;;;;;;;0.13;0.10;;;17.30;99.90;;;;;;5090613;28;20012;-73
2022/03/08 12:39:55;;;;;;;1.98;0.10;;;17.30;99.90;;;;;;5092788;28;20413;-77
2022/03/08 12:42:53;;;;;;;0.30;0.30;;;17.30;99.90;;;;;;5091649;28;20073;-79
2022/03/08 12:45:22;;;;;;;1.23;0.10;;;17.30;99.90;;;;;;5084115;28;20071;-76
2022/03/08 12:47:53;;;;;;;0.15;0.10;;;17.30;99.90;;;;;;5090390;28;20052;-73
2022/03/08 12:50:32;;;;;;;1.23;0.30;;;17.20;99.90;;;;;;5093078;28;20459;-72
2022/03/08 12:53:26;;;;;;;0.10;0.10;;;17.30;99.90;;;;;;5093679;28;20020;-75
2022/03/08 12:55:58;;;;;;;0.10;0.10;;;17.20;99.90;;;;;;5080937;28;20029;-73
2022/03/08 12:58:43;;;;;;;0.38;0.10;;;17.20;99.90;;;;;;5072709;28;20103;-73
2022/03/08 13:01:13;;;;;;;0.93;0.10;;;17.20;99.90;;;;;;5072083;28;20095;-75